sensor_id;sensor_type;location;lat;lon;timestamp;temperature;humidity
22071;DHT22;11200;51.488;6.668;2023-02-11T07:31:08;6.50;99.90
22071;DHT22;11200;51.488;6.668;2023-02-11T07:33:35;5.70;99.90
22071;DHT22;11200;51.488;6.668;2023-02-11T07:36:01;5.90;99.90
22071;DHT22;11200;51.488;6.668;2023-02-11T07:38:27;6.10;99.90
22071;DHT22;11200;51.488;6.668;2023-02-11T07:40:53;6.00;99.90
22071;DHT22;11200;51.488;6.668;2023-02-11T07:43:19;7.20;99.90
22071;DHT22;11200;51.488;6.668;2023-02-11T07:45:44;7.70;99.90
22071;DHT22;11200;51.488;6.668;2023-02-11T07:48:10;7.50;99.90
22071;DHT22;11200;51.488;6.668;2023-02-11T07:50:35;5.90;99.90
22071;DHT22;11200;51.488;6.668;2023-02-11T07:53:01;6.00;99.90
22071;DHT22;11200;51.488;6.668;2023-02-11T07:55:27;7.10;99.90
22071;DHT22;11200;51.488;6.668;2023-02-11T07:57:52;7.80;99.90
22071;DHT22;11200;51.488;6.668;2023-02-11T08:00:18;6.10;99.90
22071;DHT22;11200;51.488;6.668;2023-02-11T08:02:44;6.50;99.90
22071;DHT22;11200;51.488;6.668;2023-02-11T08:05:09;8.10;99.90
22071;DHT22;11200;51.488;6.668;2023-02-11T08:07:35;6.30;99.90
22071;DHT22;11200;51.488;6.668;2023-02-11T08:10:01;6.60;99.90
22071;DHT22;11200;51.488;6.668;2023-02-11T08:12:26;7.00;99.90
22071;DHT22;11200;51.488;6.668;2023-02-11T08:14:52;6.50;99.90
22071;DHT22;11200;51.488;6.668;2023-02-11T08:17:18;7.40;99.90
22071;DHT22;11200;51.488;6.668;2023-02-11T08:19:43;8.20;99.90
22071;DHT22;11200;51.488;6.668;2023-02-11T08:22:09;6.70;99.90
22071;DHT22;11200;51.488;6.668;2023-02-11T08:24:35;6.60;99.90
22071;DHT22;11200;51.488;6.668;2023-02-11T08:27:01;6.70;99.90
22071;DHT22;11200;51.488;6.668;2023-02-11T08:29:26;7.60;99.90
22071;DHT22;11200;51.488;6.668;2023-02-11T08:31:52;6.60;99.90
22071;DHT22;11200;51.488;6.668;2023-02-11T08:34:17;6.70;99.90
22071;DHT22;11200;51.488;6.668;2023-02-11T08:36:45;7.10;99.90
22071;DHT22;11200;51.488;6.668;2023-02-11T08:39:17;6.70;99.90
22071;DHT22;11200;51.488;6.668;2023-02-11T08:41:43;6.80;99.90
22071;DHT22;11200;51.488;6.668;2023-02-11T08:44:09;6.80;99.90
22071;DHT22;11200;51.488;6.668;2023-02-11T08:46:35;6.70;99.90
22071;DHT22;11200;51.488;6.668;2023-02-11T08:49:01;6.90;99.90
22071;DHT22;11200;51.488;6.668;2023-02-11T08:51:27;6.80;99.90
22071;DHT22;11200;51.488;6.668;2023-02-11T08:53:55;6.80;99.90
22071;DHT22;11200;51.488;6.668;2023-02-11T08:56:21;6.80;99.90
22071;DHT22;11200;51.488;6.668;2023-02-11T08:58:48;6.80;99.90
22071;DHT22;11200;51.488;6.668;2023-02-11T09:01:26;6.80;99.90
22071;DHT22;11200;51.488;6.668;2023-02-11T09:03:52;6.80;99.90
22071;DHT22;11200;51.488;6.668;2023-02-11T09:06:18;6.90;99.90
22071;DHT22;11200;51.488;6.668;2023-02-11T09:08:46;6.90;99.90
22071;DHT22;11200;51.488;6.668;2023-02-11T09:11:12;6.70;99.90
22071;DHT22;11200;51.488;6.668;2023-02-11T09:13:40;6.90;99.90
22071;DHT22;11200;51.488;6.668;2023-02-11T09:16:06;6.90;99.90
22071;DHT22;11200;51.488;6.668;2023-02-11T09:18:32;7.20;99.90
22071;DHT22;11200;51.488;6.668;2023-02-11T09:21:08;7.30;99.90
22071;DHT22;11200;51.488;6.668;2023-02-11T09:23:34;7.00;99.90
22071;DHT22;11200;51.488;6.668;2023-02-11T09:26:05;7.00;99.90
22071;DHT22;11200;51.488;6.668;2023-02-11T09:28:31;7.00;99.90
22071;DHT22;11200;51.488;6.668;2023-02-11T09:30:57;7.00;99.90
22071;DHT22;11200;51.488;6.668;2023-02-11T09:33:22;7.00;99.90
22071;DHT22;11200;51.488;6.668;2023-02-11T09:35:48;7.10;99.90
22071;DHT22;11200;51.488;6.668;2023-02-11T09:38:14;7.00;99.90
22071;DHT22;11200;51.488;6.668;2023-02-11T09:40:43;7.10;99.90
22071;DHT22;11200;51.488;6.668;2023-02-11T09:45:58;7.10;99.90
22071;DHT22;11200;51.488;6.668;2023-02-11T09:48:24;7.20;99.90
22071;DHT22;11200;51.488;6.668;2023-02-11T09:50:53;7.20;99.90
22071;DHT22;11200;51.488;6.668;2023-02-11T09:55:47;7.20;99.90
22071;DHT22;11200;51.488;6.668;2023-02-11T09:58:15;7.20;99.90
22071;DHT22;11200;51.488;6.668;2023-02-11T10:00:43;7.30;99.90
22071;DHT22;11200;51.488;6.668;2023-02-11T10:05:47;7.30;99.90
22071;DHT22;11200;51.488;6.668;2023-02-11T10:22:56;7.40;99.90
22071;DHT22;11200;51.488;6.668;2023-02-11T10:27:57;7.50;99.90
22071;DHT22;11200;51.488;6.668;2023-02-11T10:30:32;7.60;99.90
22071;DHT22;11200;51.488;6.668;2023-02-11T10:33:29;7.60;99.90
22071;DHT22;11200;51.488;6.668;2023-02-11T10:35:55;7.60;99.90
22071;DHT22;11200;51.488;6.668;2023-02-11T10:38:21;7.60;99.90
22071;DHT22;11200;51.488;6.668;2023-02-11T10:40:47;7.60;99.90
22071;DHT22;11200;51.488;6.668;2023-02-11T10:43:16;7.70;99.90
22071;DHT22;11200;51.488;6.668;2023-02-11T10:45:47;7.70;99.90
22071;DHT22;11200;51.488;6.668;2023-02-11T10:51:16;7.80;99.90
22071;DHT22;11200;51.488;6.668;2023-02-11T10:53:42;8.00;99.90
22071;DHT22;11200;51.488;6.668;2023-02-11T10:56:11;7.80;99.90
22071;DHT22;11200;51.488;6.668;2023-02-11T10:58:52;7.90;99.90
22071;DHT22;11200;51.488;6.668;2023-02-11T11:01:19;7.90;99.90
22071;DHT22;11200;51.488;6.668;2023-02-11T11:03:49;7.90;99.90
22071;DHT22;11200;51.488;6.668;2023-02-11T11:06:15;8.00;99.90
22071;DHT22;11200;51.488;6.668;2023-02-11T11:08:52;8.00;99.90
22071;DHT22;11200;51.488;6.668;2023-02-11T11:11:22;8.00;99.90
22071;DHT22;11200;51.488;6.668;2023-02-11T11:18:44;8.10;99.90
22071;DHT22;11200;51.488;6.668;2023-02-11T11:21:29;8.10;99.90
22071;DHT22;11200;51.488;6.668;2023-02-11T11:23:59;8.10;99.90
22071;DHT22;11200;51.488;6.668;2023-02-11T11:27:14;8.10;99.90
22071;DHT22;11200;51.488;6.668;2023-02-11T11:29:23;8.10;99.90
22071;DHT22;11200;51.488;6.668;2023-02-11T11:31:57;8.20;99.90
22071;DHT22;11200;51.488;6.668;2023-02-11T11:34:55;8.20;99.90
22071;DHT22;11200;51.488;6.668;2023-02-11T11:37:32;8.20;99.90
22071;DHT22;11200;51.488;6.668;2023-02-11T11:40:29;8.20;99.90
22071;DHT22;11200;51.488;6.668;2023-02-11T11:43:21;8.30;99.90
22071;DHT22;11200;51.488;6.668;2023-02-11T11:45:54;8.30;99.90
22071;DHT22;11200;51.488;6.668;2023-02-11T11:51:04;8.40;99.90
22071;DHT22;11200;51.488;6.668;2023-02-11T11:56:05;8.40;99.90
22071;DHT22;11200;51.488;6.668;2023-02-11T11:58:34;8.50;99.90
22071;DHT22;11200;51.488;6.668;2023-02-11T12:04:02;8.50;99.90
22071;DHT22;11200;51.488;6.668;2023-02-11T12:14:58;8.60;99.90
22071;DHT22;11200;51.488;6.668;2023-02-11T12:17:48;8.60;99.90
22071;DHT22;11200;51.488;6.668;2023-02-11T12:25:56;8.70;99.90
22071;DHT22;11200;51.488;6.668;2023-02-11T12:28:36;8.80;99.90
22071;DHT22;11200;51.488;6.668;2023-02-11T12:31:29;8.70;99.90
22071;DHT22;11200;51.488;6.668;2023-02-11T12:39:43;8.80;99.90
22071;DHT22;11200;51.488;6.668;2023-02-11T12:55:29;8.90;99.90
22071;DHT22;11200;51.488;6.668;2023-02-11T12:58:01;8.90;99.90
22071;DHT22;11200;51.488;6.668;2023-02-11T13:03:20;9.20;99.90
22071;DHT22;11200;51.488;6.668;2023-02-11T13:05:53;8.90;99.90
22071;DHT22;11200;51.488;6.668;2023-02-11T13:09:06;9.00;99.90
22071;DHT22;11200;51.488;6.668;2023-02-11T13:11:27;9.00;99.90
22071;DHT22;11200;51.488;6.668;2023-02-11T13:16:37;9.00;99.90
22071;DHT22;11200;51.488;6.668;2023-02-11T13:19:33;9.00;99.90
22071;DHT22;11200;51.488;6.668;2023-02-11T13:24:43;9.10;99.90
22071;DHT22;11200;51.488;6.668;2023-02-11T13:27:35;9.10;99.90
22071;DHT22;11200;51.488;6.668;2023-02-11T13:40:38;9.10;99.90
22071;DHT22;11200;51.488;6.668;2023-02-11T13:43:10;9.10;99.90
22071;DHT22;11200;51.488;6.668;2023-02-11T13:45:49;9.20;99.90
22071;DHT22;11200;51.488;6.668;2023-02-11T13:48:36;9.20;99.90
22071;DHT22;11200;51.488;6.668;2023-02-11T13:51:06;9.20;99.90
22071;DHT22;11200;51.488;6.668;2023-02-11T13:53:55;9.20;99.90
22071;DHT22;11200;51.488;6.668;2023-02-11T13:56:36;9.20;99.90
22071;DHT22;11200;51.488;6.668;2023-02-11T13:59:05;9.20;99.90
22071;DHT22;11200;51.488;6.668;2023-02-11T14:04:30;9.20;99.90
22071;DHT22;11200;51.488;6.668;2023-02-11T14:07:31;9.30;99.90
22071;DHT22;11200;51.488;6.668;2023-02-11T14:14:22;9.30;99.90
22071;DHT22;11200;51.488;6.668;2023-02-11T14:16:23;9.30;99.90
22071;DHT22;11200;51.488;6.668;2023-02-11T14:21:32;9.40;99.90
22071;DHT22;11200;51.488;6.668;2023-02-11T14:26:43;9.50;99.90
22071;DHT22;11200;51.488;6.668;2023-02-11T14:29:31;9.50;99.90
22071;DHT22;11200;51.488;6.668;2023-02-11T14:32:08;9.50;99.90
22071;DHT22;11200;51.488;6.668;2023-02-11T14:37:44;9.60;99.90
22071;DHT22;11200;51.488;6.668;2023-02-11T14:42:42;9.60;99.90
22071;DHT22;11200;51.488;6.668;2023-02-11T14:45:10;9.70;99.90
22071;DHT22;11200;51.488;6.668;2023-02-11T14:47:45;9.70;99.90
22071;DHT22;11200;51.488;6.668;2023-02-11T14:50:23;9.70;99.90
22071;DHT22;11200;51.488;6.668;2023-02-11T14:52:51;9.70;99.90
22071;DHT22;11200;51.488;6.668;2023-02-11T14:55:47;9.80;99.90
22071;DHT22;11200;51.488;6.668;2023-02-11T14:58:17;9.80;99.90
22071;DHT22;11200;51.488;6.668;2023-02-11T15:00:54;9.80;99.90
22071;DHT22;11200;51.488;6.668;2023-02-11T15:03:41;9.80;99.90
22071;DHT22;11200;51.488;6.668;2023-02-11T15:06:20;9.80;99.90
22071;DHT22;11200;51.488;6.668;2023-02-11T15:11:20;9.80;99.90
22071;DHT22;11200;51.488;6.668;2023-02-11T15:13:47;9.80;99.90
22071;DHT22;11200;51.488;6.668;2023-02-11T15:16:20;9.80;99.90
22071;DHT22;11200;51.488;6.668;2023-02-11T15:18:54;9.80;99.90
22071;DHT22;11200;51.488;6.668;2023-02-11T15:21:22;9.80;99.90
22071;DHT22;11200;51.488;6.668;2023-02-11T15:24:04;9.80;99.90
22071;DHT22;11200;51.488;6.668;2023-02-11T15:26:33;9.80;99.90
22071;DHT22;11200;51.488;6.668;2023-02-11T15:28:59;9.80;99.90
22071;DHT22;11200;51.488;6.668;2023-02-11T15:31:26;9.80;99.90
22071;DHT22;11200;51.488;6.668;2023-02-11T15:33:52;9.80;99.90
22071;DHT22;11200;51.488;6.668;2023-02-11T15:36:21;9.80;99.90
22071;DHT22;11200;51.488;6.668;2023-02-11T15:39:31;9.80;99.90
22071;DHT22;11200;51.488;6.668;2023-02-11T15:44:41;9.80;99.90
22071;DHT22;11200;51.488;6.668;2023-02-11T15:47:20;9.80;99.90
22071;DHT22;11200;51.488;6.668;2023-02-11T15:49:47;9.80;99.90
22071;DHT22;11200;51.488;6.668;2023-02-11T15:52:14;9.80;99.90
22071;DHT22;11200;51.488;6.668;2023-02-11T15:54:47;9.80;99.90
22071;DHT22;11200;51.488;6.668;2023-02-11T15:57:13;9.80;99.90
22071;DHT22;11200;51.488;6.668;2023-02-11T15:59:44;9.80;99.90
22071;DHT22;11200;51.488;6.668;2023-02-11T16:02:19;9.80;99.90
22071;DHT22;11200;51.488;6.668;2023-02-11T16:04:59;9.80;99.90
22071;DHT22;11200;51.488;6.668;2023-02-11T16:07:38;9.80;99.90
22071;DHT22;11200;51.488;6.668;2023-02-11T16:10:29;9.70;99.90
22071;DHT22;11200;51.488;6.668;2023-02-11T16:20:53;9.70;99.90
22071;DHT22;11200;51.488;6.668;2023-02-11T16:23:26;9.70;99.90
22071;DHT22;11200;51.488;6.668;2023-02-11T16:26:05;9.70;99.90
22071;DHT22;11200;51.488;6.668;2023-02-11T16:28:34;9.70;99.90
22071;DHT22;11200;51.488;6.668;2023-02-11T16:31:01;9.70;99.90
22071;DHT22;11200;51.488;6.668;2023-02-11T16:33:27;9.60;99.90
22071;DHT22;11200;51.488;6.668;2023-02-11T16:35:53;9.60;99.90
22071;DHT22;11200;51.488;6.668;2023-02-11T16:38:19;9.60;99.90
22071;DHT22;11200;51.488;6.668;2023-02-11T16:40:44;9.60;99.90
22071;DHT22;11200;51.488;6.668;2023-02-11T16:43:13;9.60;99.90
22071;DHT22;11200;51.488;6.668;2023-02-11T16:45:39;9.60;99.90
22071;DHT22;11200;51.488;6.668;2023-02-11T16:48:06;9.60;99.90
22071;DHT22;11200;51.488;6.668;2023-02-11T16:50:33;9.50;99.90
22071;DHT22;11200;51.488;6.668;2023-02-11T16:52:59;9.50;99.90
22071;DHT22;11200;51.488;6.668;2023-02-11T16:55:28;9.50;99.90
22071;DHT22;11200;51.488;6.668;2023-02-11T16:57:54;9.50;99.90
22071;DHT22;11200;51.488;6.668;2023-02-11T17:00:20;9.50;99.90
22071;DHT22;11200;51.488;6.668;2023-02-11T17:02:46;9.50;99.90
22071;DHT22;11200;51.488;6.668;2023-02-11T17:05:20;9.50;99.90
22071;DHT22;11200;51.488;6.668;2023-02-11T17:07:48;9.40;99.90
22071;DHT22;11200;51.488;6.668;2023-02-11T17:10:16;9.40;99.90
22071;DHT22;11200;51.488;6.668;2023-02-11T17:12:41;9.40;99.90
22071;DHT22;11200;51.488;6.668;2023-02-11T17:15:07;9.40;99.90
22071;DHT22;11200;51.488;6.668;2023-02-11T17:17:33;9.30;99.90
22071;DHT22;11200;51.488;6.668;2023-02-11T17:19:59;9.30;99.90
22071;DHT22;11200;51.488;6.668;2023-02-11T17:22:25;9.30;99.90
22071;DHT22;11200;51.488;6.668;2023-02-11T17:24:50;9.30;99.90
22071;DHT22;11200;51.488;6.668;2023-02-11T17:27:16;9.30;99.90
22071;DHT22;11200;51.488;6.668;2023-02-11T17:29:42;9.20;99.90
22071;DHT22;11200;51.488;6.668;2023-02-11T17:32:07;9.30;99.90
22071;DHT22;11200;51.488;6.668;2023-02-11T17:34:33;9.20;99.90
22071;DHT22;11200;51.488;6.668;2023-02-11T17:36:58;9.30;99.90
22071;DHT22;11200;51.488;6.668;2023-02-11T17:39:25;9.30;99.90
22071;DHT22;11200;51.488;6.668;2023-02-11T17:41:50;9.20;99.90
22071;DHT22;11200;51.488;6.668;2023-02-11T17:44:16;9.20;99.90
22071;DHT22;11200;51.488;6.668;2023-02-11T17:46:42;9.20;99.90
22071;DHT22;11200;51.488;6.668;2023-02-11T17:49:10;9.10;99.90
22071;DHT22;11200;51.488;6.668;2023-02-11T17:51:37;9.10;99.90
22071;DHT22;11200;51.488;6.668;2023-02-11T17:54:15;9.10;99.90
22071;DHT22;11200;51.488;6.668;2023-02-11T17:56:41;9.10;99.90
22071;DHT22;11200;51.488;6.668;2023-02-11T17:59:08;9.10;99.90
22071;DHT22;11200;51.488;6.668;2023-02-11T18:01:35;9.10;99.90
22071;DHT22;11200;51.488;6.668;2023-02-11T18:04:02;9.10;99.90
22071;DHT22;11200;51.488;6.668;2023-02-11T18:06:28;9.00;99.90
22071;DHT22;11200;51.488;6.668;2023-02-11T18:08:56;9.10;99.90
22071;DHT22;11200;51.488;6.668;2023-02-11T18:11:24;9.00;99.90
22071;DHT22;11200;51.488;6.668;2023-02-11T18:13:50;9.00;99.90
22071;DHT22;11200;51.488;6.668;2023-02-11T18:16:19;9.00;99.90
22071;DHT22;11200;51.488;6.668;2023-02-11T18:18:46;9.00;99.90
22071;DHT22;11200;51.488;6.668;2023-02-11T18:21:13;9.00;99.90
22071;DHT22;11200;51.488;6.668;2023-02-11T18:23:40;9.00;99.90
22071;DHT22;11200;51.488;6.668;2023-02-11T18:26:07;9.00;99.90
22071;DHT22;11200;51.488;6.668;2023-02-11T18:28:33;9.00;99.90
22071;DHT22;11200;51.488;6.668;2023-02-11T18:30:58;8.90;99.90
22071;DHT22;11200;51.488;6.668;2023-02-11T18:33:24;8.90;99.90
22071;DHT22;11200;51.488;6.668;2023-02-11T18:35:50;8.90;99.90
22071;DHT22;11200;51.488;6.668;2023-02-11T18:38:15;8.90;99.90
22071;DHT22;11200;51.488;6.668;2023-02-11T18:40:43;8.90;99.90
22071;DHT22;11200;51.488;6.668;2023-02-11T18:43:12;8.90;99.90
22071;DHT22;11200;51.488;6.668;2023-02-11T18:45:42;8.90;99.90
22071;DHT22;11200;51.488;6.668;2023-02-11T18:48:08;8.80;99.90
22071;DHT22;11200;51.488;6.668;2023-02-11T18:50:33;8.80;99.90
22071;DHT22;11200;51.488;6.668;2023-02-11T18:52:59;8.80;99.90
22071;DHT22;11200;51.488;6.668;2023-02-11T18:55:24;8.90;99.90
22071;DHT22;11200;51.488;6.668;2023-02-11T18:57:51;8.80;99.90
22071;DHT22;11200;51.488;6.668;2023-02-11T19:00:17;8.90;99.90
22071;DHT22;11200;51.488;6.668;2023-02-11T19:02:43;8.80;99.90
22071;DHT22;11200;51.488;6.668;2023-02-11T19:05:09;8.80;99.90
22071;DHT22;11200;51.488;6.668;2023-02-11T19:07:36;8.80;99.90
22071;DHT22;11200;51.488;6.668;2023-02-11T19:10:02;8.80;99.90
22071;DHT22;11200;51.488;6.668;2023-02-11T19:12:28;8.80;99.90
22071;DHT22;11200;51.488;6.668;2023-02-11T19:14:54;8.80;99.90
22071;DHT22;11200;51.488;6.668;2023-02-11T19:17:20;8.80;99.90
22071;DHT22;11200;51.488;6.668;2023-02-11T19:19:46;8.80;99.90
22071;DHT22;11200;51.488;6.668;2023-02-11T19:22:11;8.70;99.90
22071;DHT22;11200;51.488;6.668;2023-02-11T19:24:37;8.70;99.90
22071;DHT22;11200;51.488;6.668;2023-02-11T19:27:04;8.80;99.90
22071;DHT22;11200;51.488;6.668;2023-02-11T19:29:30;8.70;99.90
22071;DHT22;11200;51.488;6.668;2023-02-11T19:34:27;8.70;99.90
22071;DHT22;11200;51.488;6.668;2023-02-11T19:36:53;8.70;99.90
22071;DHT22;11200;51.488;6.668;2023-02-11T19:39:19;8.70;99.90
22071;DHT22;11200;51.488;6.668;2023-02-11T19:41:45;8.70;99.90
22071;DHT22;11200;51.488;6.668;2023-02-11T19:44:12;8.70;99.90
22071;DHT22;11200;51.488;6.668;2023-02-11T19:46:38;8.70;99.90
22071;DHT22;11200;51.488;6.668;2023-02-11T19:49:05;8.70;99.90
22071;DHT22;11200;51.488;6.668;2023-02-11T19:51:32;8.60;99.90
22071;DHT22;11200;51.488;6.668;2023-02-11T19:53:58;8.60;99.90
22071;DHT22;11200;51.488;6.668;2023-02-11T19:56:25;8.60;99.90
22071;DHT22;11200;51.488;6.668;2023-02-11T19:58:52;8.60;99.90
22071;DHT22;11200;51.488;6.668;2023-02-11T20:01:20;8.60;99.90
22071;DHT22;11200;51.488;6.668;2023-02-11T20:03:51;8.60;99.90
22071;DHT22;11200;51.488;6.668;2023-02-11T20:06:20;8.60;99.90
22071;DHT22;11200;51.488;6.668;2023-02-11T20:08:51;8.60;99.90
22071;DHT22;11200;51.488;6.668;2023-02-11T20:11:17;8.60;99.90
22071;DHT22;11200;51.488;6.668;2023-02-11T20:13:44;8.60;99.90
22071;DHT22;11200;51.488;6.668;2023-02-11T20:16:15;8.60;99.90
22071;DHT22;11200;51.488;6.668;2023-02-11T20:18:41;8.50;99.90
22071;DHT22;11200;51.488;6.668;2023-02-11T20:21:08;8.50;99.90
22071;DHT22;11200;51.488;6.668;2023-02-11T20:23:35;8.40;99.90
22071;DHT22;11200;51.488;6.668;2023-02-11T20:26:11;8.50;99.90
22071;DHT22;11200;51.488;6.668;2023-02-11T20:28:37;8.50;99.90
22071;DHT22;11200;51.488;6.668;2023-02-11T20:31:03;8.50;99.90
22071;DHT22;11200;51.488;6.668;2023-02-11T20:33:29;8.50;99.90
22071;DHT22;11200;51.488;6.668;2023-02-11T20:38:29;8.50;99.90
22071;DHT22;11200;51.488;6.668;2023-02-11T20:41:00;8.50;99.90
22071;DHT22;11200;51.488;6.668;2023-02-11T20:43:26;8.50;99.90
22071;DHT22;11200;51.488;6.668;2023-02-11T20:45:52;8.50;99.90
22071;DHT22;11200;51.488;6.668;2023-02-11T20:48:17;8.50;99.90
22071;DHT22;11200;51.488;6.668;2023-02-11T20:50:43;8.50;99.90
22071;DHT22;11200;51.488;6.668;2023-02-11T20:53:09;8.40;99.90
22071;DHT22;11200;51.488;6.668;2023-02-11T20:55:39;8.40;99.90
22071;DHT22;11200;51.488;6.668;2023-02-11T20:58:06;8.40;99.90
22071;DHT22;11200;51.488;6.668;2023-02-11T21:00:33;8.40;99.90
22071;DHT22;11200;51.488;6.668;2023-02-11T21:02:59;8.40;99.90
22071;DHT22;11200;51.488;6.668;2023-02-11T21:05:25;8.40;99.90
22071;DHT22;11200;51.488;6.668;2023-02-11T21:07:51;8.40;99.90
22071;DHT22;11200;51.488;6.668;2023-02-11T21:10:17;8.40;99.90
22071;DHT22;11200;51.488;6.668;2023-02-11T21:12:43;8.40;99.90
22071;DHT22;11200;51.488;6.668;2023-02-11T21:15:08;8.40;99.90
22071;DHT22;11200;51.488;6.668;2023-02-11T21:17:36;8.40;99.90
22071;DHT22;11200;51.488;6.668;2023-02-11T21:20:02;8.40;99.90
22071;DHT22;11200;51.488;6.668;2023-02-11T21:22:28;8.30;99.90
22071;DHT22;11200;51.488;6.668;2023-02-11T21:24:54;8.40;99.90
22071;DHT22;11200;51.488;6.668;2023-02-11T21:27:20;8.40;99.90
22071;DHT22;11200;51.488;6.668;2023-02-11T21:29:46;8.30;99.90
22071;DHT22;11200;51.488;6.668;2023-02-11T21:32:11;8.30;99.90
22071;DHT22;11200;51.488;6.668;2023-02-11T21:34:37;8.30;99.90
22071;DHT22;11200;51.488;6.668;2023-02-11T21:37:02;8.30;99.90
22071;DHT22;11200;51.488;6.668;2023-02-11T21:39:28;8.30;99.90
22071;DHT22;11200;51.488;6.668;2023-02-11T21:41:54;8.30;99.90
22071;DHT22;11200;51.488;6.668;2023-02-11T21:44:20;8.30;99.90
22071;DHT22;11200;51.488;6.668;2023-02-11T21:46:46;8.30;99.90
22071;DHT22;11200;51.488;6.668;2023-02-11T21:49:11;8.10;99.90
22071;DHT22;11200;51.488;6.668;2023-02-11T21:51:38;8.30;99.90
22071;DHT22;11200;51.488;6.668;2023-02-11T21:54:04;8.20;99.90
22071;DHT22;11200;51.488;6.668;2023-02-11T21:56:31;8.30;99.90
22071;DHT22;11200;51.488;6.668;2023-02-11T21:58:58;8.30;99.90
22071;DHT22;11200;51.488;6.668;2023-02-11T22:01:27;8.20;99.90
22071;DHT22;11200;51.488;6.668;2023-02-11T22:03:53;8.10;99.90
22071;DHT22;11200;51.488;6.668;2023-02-11T22:06:25;8.20;99.90
22071;DHT22;11200;51.488;6.668;2023-02-11T22:08:53;8.20;99.90
22071;DHT22;11200;51.488;6.668;2023-02-11T22:11:19;8.20;99.90
22071;DHT22;11200;51.488;6.668;2023-02-11T22:13:45;8.20;99.90
22071;DHT22;11200;51.488;6.668;2023-02-11T22:16:13;8.20;99.90
22071;DHT22;11200;51.488;6.668;2023-02-11T22:18:40;8.20;99.90
22071;DHT22;11200;51.488;6.668;2023-02-11T22:21:15;8.20;99.90
22071;DHT22;11200;51.488;6.668;2023-02-11T22:23:41;8.20;99.90
22071;DHT22;11200;51.488;6.668;2023-02-11T22:26:13;8.20;99.90
22071;DHT22;11200;51.488;6.668;2023-02-11T22:28:39;8.20;99.90
22071;DHT22;11200;51.488;6.668;2023-02-11T22:31:13;8.10;99.90
22071;DHT22;11200;51.488;6.668;2023-02-11T22:33:39;8.10;99.90
22071;DHT22;11200;51.488;6.668;2023-02-11T22:36:09;8.20;99.90
22071;DHT22;11200;51.488;6.668;2023-02-11T22:38:36;8.10;99.90
22071;DHT22;11200;51.488;6.668;2023-02-11T22:41:08;8.10;99.90
22071;DHT22;11200;51.488;6.668;2023-02-11T22:43:34;8.10;99.90
22071;DHT22;11200;51.488;6.668;2023-02-11T22:46:01;8.10;99.90
22071;DHT22;11200;51.488;6.668;2023-02-11T22:48:27;8.10;99.90
22071;DHT22;11200;51.488;6.668;2023-02-11T22:50:53;8.30;99.90
22071;DHT22;11200;51.488;6.668;2023-02-11T22:53:18;8.10;99.90
22071;DHT22;11200;51.488;6.668;2023-02-11T22:55:44;8.10;99.90
22071;DHT22;11200;51.488;6.668;2023-02-11T22:58:10;8.10;99.90
22071;DHT22;11200;51.488;6.668;2023-02-11T23:00:38;8.10;99.90
22071;DHT22;11200;51.488;6.668;2023-02-11T23:03:05;8.10;99.90
22071;DHT22;11200;51.488;6.668;2023-02-11T23:05:39;8.10;99.90
22071;DHT22;11200;51.488;6.668;2023-02-11T23:08:09;8.10;99.90
22071;DHT22;11200;51.488;6.668;2023-02-11T23:10:35;8.10;99.90
22071;DHT22;11200;51.488;6.668;2023-02-11T23:13:02;8.10;99.90
